createdAt,value
2016-05-16T00:00:25.240Z,0
2016-05-16T00:01:25.103Z,0
2016-05-16T00:02:25.106Z,0
2016-05-16T00:03:25.279Z,0
2016-05-16T00:04:25.267Z,0
2016-05-16T00:05:24.988Z,0
2016-05-16T00:06:25.273Z,0
2016-05-16T00:07:25.290Z,0
2016-05-16T00:08:24.981Z,0
2016-05-16T00:09:25.295Z,0
2016-05-16T00:10:25.298Z,0
2016-05-16T00:11:25.300Z,0
2016-05-16T00:12:25.335Z,0
2016-05-16T00:13:25.307Z,0
2016-05-16T00:14:24.856Z,0
2016-05-16T00:15:25.172Z,0
2016-05-16T00:16:25.330Z,0
2016-05-16T00:17:25.349Z,0
2016-05-16T00:18:25.366Z,0
2016-05-16T00:19:25.197Z,0
2016-05-16T00:20:26.029Z,0
2016-05-16T00:21:25.360Z,0
2016-05-16T00:22:25.221Z,0
2016-05-16T00:23:25.068Z,0
2016-05-16T00:24:25.399Z,0
2016-05-16T00:25:25.402Z,0
2016-05-16T00:26:25.404Z,0
2016-05-16T00:27:25.423Z,0
2016-05-16T00:28:25.394Z,0
2016-05-16T00:29:25.428Z,0
2016-05-16T00:30:25.431Z,0
2016-05-16T00:31:25.433Z,0
2016-05-16T00:32:25.437Z,0
2016-05-16T00:33:24.970Z,0
2016-05-16T00:34:25.442Z,0
2016-05-16T00:35:25.912Z,0
2016-05-16T00:36:25.462Z,0
2016-05-16T00:37:25.309Z,0
2016-05-16T00:38:25.311Z,0
2016-05-16T00:39:25.486Z,0
2016-05-16T00:40:25.473Z,0
2016-05-16T00:41:25.476Z,0
2016-05-16T00:42:25.525Z,0
2016-05-16T00:43:25.512Z,0
2016-05-16T00:44:25.499Z,0
2016-05-16T00:45:25.408Z,0
2016-05-16T00:46:25.364Z,0
2016-05-16T00:47:25.383Z,0
2016-05-16T00:48:25.525Z,0
2016-05-16T00:49:25.528Z,0
2016-05-16T00:50:25.766Z,0
2016-05-16T00:51:25.565Z,0
2016-05-16T00:52:25.552Z,0
2016-05-16T00:53:25.414Z,0
2016-05-16T00:54:25.558Z,0
2016-05-16T00:55:25.404Z,0
2016-05-16T00:56:25.610Z,0
2016-05-16T00:57:25.582Z,0
2016-05-16T00:58:25.428Z,0
2016-05-16T00:59:25.586Z,0
2016-05-16T01:00:25.292Z,0
2016-05-16T01:01:25.592Z,0
2016-05-16T01:02:25.610Z,0
2016-05-16T01:03:25.301Z,0
2016-05-16T01:04:25.615Z,0
2016-05-16T01:05:25.681Z,0
2016-05-16T01:06:25.495Z,0
2016-05-16T01:07:25.656Z,0
2016-05-16T01:08:25.486Z,0
2016-05-16T01:09:25.332Z,0
2016-05-16T01:10:25.664Z,0
2016-05-16T01:11:25.697Z,0
2016-05-16T01:12:25.575Z,0
2016-05-16T01:13:25.672Z,0
2016-05-16T01:14:25.534Z,0
2016-05-16T01:15:25.536Z,0
2016-05-16T01:16:25.710Z,0
2016-05-16T01:17:25.697Z,0
2016-05-16T01:18:25.700Z,0
2016-05-16T01:19:25.547Z,0
2016-05-16T01:20:25.972Z,0
2016-05-16T01:21:25.583Z,0
2016-05-16T01:22:25.741Z,0
2016-05-16T01:23:25.574Z,0
2016-05-16T01:24:25.733Z,0
2016-05-16T01:25:25.594Z,0
2016-05-16T01:26:25.752Z,0
2016-05-16T01:27:25.756Z,0
2016-05-16T01:28:25.789Z,0
2016-05-16T01:29:25.621Z,0
2016-05-16T01:30:25.623Z,0
2016-05-16T01:31:25.626Z,0
2016-05-16T01:32:25.801Z,0
2016-05-16T01:33:25.804Z,0
2016-05-16T01:34:25.806Z,0
2016-05-16T01:35:25.964Z,0
2016-05-16T01:36:25.811Z,0
2016-05-16T01:37:25.846Z,0
2016-05-16T01:38:25.817Z,0
2016-05-16T01:39:25.819Z,0
2016-05-16T01:40:25.838Z,0
2016-05-16T01:41:25.840Z,0
2016-05-16T01:42:25.858Z,0
2016-05-16T01:43:25.549Z,0
2016-05-16T01:44:25.864Z,0
2016-05-16T01:45:25.710Z,0
2016-05-16T01:46:25.886Z,0
2016-05-16T01:47:25.888Z,0
2016-05-16T01:48:25.733Z,0
2016-05-16T01:49:25.894Z,0
2016-05-16T01:50:25.755Z,0
2016-05-16T01:51:25.772Z,0
2016-05-16T01:52:25.973Z,0
2016-05-16T01:53:25.719Z,0
2016-05-16T01:54:26.073Z,0
2016-05-16T01:55:25.961Z,0
2016-05-16T01:56:26.156Z,0
2016-05-16T01:57:26.173Z,0
2016-05-16T01:58:26.019Z,0
2016-05-16T01:59:26.192Z,0
2016-05-16T02:00:25.928Z,0
2016-05-16T02:01:26.094Z,0
2016-05-16T02:02:26.588Z,0
2016-05-16T02:03:26.267Z,0
2016-05-16T02:04:26.135Z,0
2016-05-16T02:05:26.283Z,0
2016-05-16T02:06:26.288Z,0
2016-05-16T02:07:26.153Z,0
2016-05-16T02:08:26.297Z,0
2016-05-16T02:09:26.302Z,0
2016-05-16T02:10:26.307Z,0
2016-05-16T02:11:26.343Z,0
2016-05-16T02:12:26.330Z,0
2016-05-16T02:13:26.333Z,0
2016-05-16T02:14:26.337Z,0
2016-05-16T02:15:26.371Z,0
2016-05-16T02:16:26.359Z,0
2016-05-16T02:17:26.361Z,0
2016-05-16T02:18:26.365Z,0
2016-05-16T02:19:26.226Z,0
2016-05-16T02:20:27.134Z,0
2016-05-16T02:21:26.232Z,0
2016-05-16T02:22:26.234Z,0
2016-05-16T02:23:26.392Z,0
2016-05-16T02:24:26.396Z,0
2016-05-16T02:25:26.258Z,0
2016-05-16T02:26:26.433Z,0
2016-05-16T02:27:26.419Z,0
2016-05-16T02:28:26.438Z,0
2016-05-16T02:29:26.284Z,0
2016-05-16T02:30:26.287Z,0
2016-05-16T02:31:26.446Z,0
2016-05-16T02:32:26.464Z,0
2016-05-16T02:33:26.310Z,0
2016-05-16T02:34:26.486Z,0
2016-05-16T02:35:26.488Z,0
2016-05-16T02:36:26.335Z,0
2016-05-16T02:37:26.508Z,0
2016-05-16T02:38:26.480Z,0
2016-05-16T02:39:26.327Z,0
2016-05-16T02:40:26.346Z,0
2016-05-16T02:41:26.504Z,0
2016-05-16T02:42:26.521Z,0
2016-05-16T02:43:26.196Z,0
2016-05-16T02:44:26.387Z,0
2016-05-16T02:45:26.218Z,0
2016-05-16T02:46:26.548Z,0
2016-05-16T02:47:26.536Z,0
2016-05-16T02:48:26.538Z,0
2016-05-16T02:49:26.385Z,0
2016-05-16T02:50:26.934Z,0
2016-05-16T02:51:26.562Z,0
2016-05-16T02:52:26.564Z,0
2016-05-16T02:53:26.256Z,0
2016-05-16T02:54:26.570Z,0
2016-05-16T02:55:26.589Z,0
2016-05-16T02:56:26.591Z,0
2016-05-16T02:57:26.594Z,0
2016-05-16T02:58:26.612Z,0
2016-05-16T02:59:26.459Z,0
2016-05-16T03:00:26.461Z,0
2016-05-16T03:01:26.464Z,0
2016-05-16T03:02:26.639Z,0
2016-05-16T03:03:26.625Z,0
2016-05-16T03:04:26.628Z,0
2016-05-16T03:05:26.505Z,0
2016-05-16T03:06:26.680Z,0
2016-05-16T03:07:26.652Z,0
2016-05-16T03:08:26.358Z,0
2016-05-16T03:09:26.516Z,0
2016-05-16T03:10:26.519Z,0
2016-05-16T03:11:26.538Z,0
2016-05-16T03:12:26.682Z,0
2016-05-16T03:13:26.684Z,0
2016-05-16T03:14:26.702Z,0
2016-05-16T03:15:26.704Z,0
2016-05-16T03:16:26.707Z,0
2016-05-16T03:17:26.554Z,0
2016-05-16T03:18:26.729Z,0
2016-05-16T03:19:26.575Z,0
2016-05-16T03:20:27.187Z,0
2016-05-16T03:21:26.737Z,0
2016-05-16T03:22:26.754Z,0
2016-05-16T03:23:26.742Z,0
2016-05-16T03:24:26.651Z,0
2016-05-16T03:25:26.779Z,0
2016-05-16T03:26:26.609Z,0
2016-05-16T03:27:26.456Z,0
2016-05-16T03:28:26.802Z,0
2016-05-16T03:29:26.789Z,0
2016-05-16T03:30:26.636Z,0
2016-05-16T03:31:26.811Z,0
2016-05-16T03:32:26.813Z,0
2016-05-16T03:33:26.816Z,0
2016-05-16T03:34:26.662Z,0
2016-05-16T03:35:26.946Z,0
2016-05-16T03:36:26.839Z,0
2016-05-16T03:37:26.670Z,0
2016-05-16T03:38:26.688Z,0
2016-05-16T03:39:26.535Z,0
2016-05-16T03:40:26.835Z,0
2016-05-16T03:41:26.852Z,0
2016-05-16T03:42:26.699Z,0
2016-05-16T03:43:26.874Z,0
2016-05-16T03:44:26.549Z,0
2016-05-16T03:45:26.879Z,0
2016-05-16T03:46:26.882Z,0
2016-05-16T03:47:26.729Z,0
2016-05-16T03:48:26.903Z,0
2016-05-16T03:49:26.906Z,0
2016-05-16T03:50:27.143Z,0
2016-05-16T03:51:26.926Z,0
2016-05-16T03:52:26.914Z,0
2016-05-16T03:53:26.604Z,0
2016-05-16T03:54:26.934Z,0
2016-05-16T03:55:26.937Z,0
2016-05-16T03:56:26.628Z,0
2016-05-16T03:57:26.959Z,0
2016-05-16T03:58:26.945Z,0
2016-05-16T03:59:26.636Z,0
2016-05-16T04:00:26.810Z,5
2016-05-16T04:01:26.969Z,5
2016-05-16T04:02:26.972Z,5
2016-05-16T04:03:26.975Z,5
2016-05-16T04:04:26.539Z,5
2016-05-16T04:05:27.042Z,5
2016-05-16T04:06:26.998Z,5
2016-05-16T04:07:26.861Z,5
2016-05-16T04:08:27.003Z,5
2016-05-16T04:09:26.866Z,5
2016-05-16T04:10:26.868Z,5
2016-05-16T04:11:26.871Z,10
2016-05-16T04:12:27.046Z,10
2016-05-16T04:13:26.735Z,10
2016-05-16T04:14:27.035Z,10
2016-05-16T04:15:26.897Z,15
2016-05-16T04:16:27.057Z,15
2016-05-16T04:17:27.074Z,15
2016-05-16T04:18:26.905Z,15
2016-05-16T04:19:26.782Z,15
2016-05-16T04:20:27.098Z,20
2016-05-16T04:21:27.085Z,20
2016-05-16T04:22:26.791Z,20
2016-05-16T04:23:27.090Z,20
2016-05-16T04:24:27.140Z,20
2016-05-16T04:25:26.956Z,20
2016-05-16T04:26:27.114Z,25
2016-05-16T04:27:26.976Z,25
2016-05-16T04:28:27.136Z,25
2016-05-16T04:29:27.154Z,25
2016-05-16T04:30:26.984Z,25
2016-05-16T04:31:27.144Z,25
2016-05-16T04:32:27.146Z,30
2016-05-16T04:33:27.149Z,30
2016-05-16T04:34:27.011Z,30
2016-05-16T04:35:27.030Z,30
2016-05-16T04:36:27.172Z,30
2016-05-16T04:37:27.175Z,35
2016-05-16T04:38:27.194Z,35
2016-05-16T04:39:27.041Z,35
2016-05-16T04:40:27.214Z,35
2016-05-16T04:41:27.233Z,35
2016-05-16T04:42:27.049Z,30
2016-05-16T04:43:27.269Z,30
2016-05-16T04:44:27.085Z,25
2016-05-16T04:45:27.071Z,25
2016-05-16T04:46:27.074Z,25
2016-05-16T04:47:27.093Z,25
2016-05-16T04:48:27.252Z,25
2016-05-16T04:49:27.098Z,25
2016-05-16T04:50:27.445Z,25
2016-05-16T04:51:27.290Z,25
2016-05-16T04:52:27.122Z,25
2016-05-16T04:53:27.265Z,25
2016-05-16T04:54:27.127Z,25
2016-05-16T04:55:27.286Z,25
2016-05-16T04:56:27.132Z,25
2016-05-16T04:57:26.995Z,25
2016-05-16T04:58:27.309Z,25
2016-05-16T04:59:27.156Z,25
2016-05-16T05:00:27.159Z,20
2016-05-16T05:01:27.334Z,20
2016-05-16T05:02:27.320Z,20
2016-05-16T05:03:27.183Z,20
2016-05-16T05:04:27.185Z,20
2016-05-16T05:05:27.203Z,20
2016-05-16T05:06:27.034Z,25
2016-05-16T05:07:27.366Z,25
2016-05-16T05:08:27.352Z,25
2016-05-16T05:09:27.214Z,25
2016-05-16T05:10:27.374Z,25
2016-05-16T05:11:27.219Z,20
2016-05-16T05:12:27.254Z,20
2016-05-16T05:13:27.257Z,20
2016-05-16T05:14:27.244Z,20
2016-05-16T05:15:27.419Z,20
2016-05-16T05:16:27.249Z,20
2016-05-16T05:17:27.267Z,20
2016-05-16T05:18:27.270Z,20
2016-05-16T05:19:27.413Z,25
2016-05-16T05:20:27.541Z,20
2016-05-16T05:21:27.449Z,25
2016-05-16T05:22:27.437Z,25
2016-05-16T05:23:27.298Z,25
2016-05-16T05:24:27.302Z,25
2016-05-16T05:25:27.445Z,25
2016-05-16T05:26:27.151Z,25
2016-05-16T05:27:27.481Z,25
2016-05-16T05:28:27.484Z,25
2016-05-16T05:29:27.487Z,25
2016-05-16T05:30:27.348Z,20
2016-05-16T05:31:27.195Z,20
2016-05-16T05:32:41.589Z,20
2016-05-16T05:33:27.357Z,20
2016-05-16T05:34:27.360Z,20
2016-05-16T05:35:27.394Z,20
2016-05-16T05:36:27.521Z,20
2016-05-16T05:37:27.556Z,20
2016-05-16T05:38:27.542Z,20
2016-05-16T05:39:27.389Z,20
2016-05-16T05:40:27.547Z,20
2016-05-16T05:41:27.550Z,20
2016-05-16T05:42:27.412Z,20
2016-05-16T05:43:27.572Z,20
2016-05-16T05:44:27.574Z,20
2016-05-16T05:45:27.608Z,25
2016-05-16T05:46:27.595Z,25
2016-05-16T05:47:27.427Z,25
2016-05-16T05:48:27.600Z,25
2016-05-16T05:49:27.447Z,25
2016-05-16T05:50:29.371Z,25
2016-05-16T05:51:27.624Z,25
2016-05-16T05:52:27.454Z,25
2016-05-16T05:53:27.474Z,25
2016-05-16T05:54:27.648Z,25
2016-05-16T05:55:27.635Z,25
2016-05-16T05:56:27.638Z,25
2016-05-16T05:57:27.484Z,25
2016-05-16T05:58:27.659Z,30
2016-05-16T05:59:27.505Z,30
2016-05-16T06:00:27.664Z,30
2016-05-16T06:01:27.511Z,30
2016-05-16T06:02:27.685Z,30
2016-05-16T06:03:27.375Z,30
2016-05-16T06:04:27.690Z,30
2016-05-16T06:05:28.084Z,35
2016-05-16T06:06:27.711Z,35
2016-05-16T06:07:27.698Z,40
2016-05-16T06:08:27.701Z,40
2016-05-16T06:09:27.719Z,45
2016-05-16T06:10:27.581Z,50
2016-05-16T06:11:27.724Z,50
2016-05-16T06:12:27.728Z,50
2016-05-16T06:13:27.574Z,55
2016-05-16T06:14:27.592Z,55
2016-05-16T06:15:27.782Z,55
2016-05-16T06:16:27.613Z,55
2016-05-16T06:17:27.787Z,50
2016-05-16T06:18:27.462Z,50
2016-05-16T06:19:27.778Z,55
2016-05-16T06:20:28.155Z,65
2016-05-16T06:21:27.783Z,65
2016-05-16T06:22:27.645Z,65
2016-05-16T06:23:27.663Z,60
2016-05-16T06:24:27.807Z,60
2016-05-16T06:25:27.809Z,65
2016-05-16T06:26:27.828Z,65
2016-05-16T06:27:27.831Z,60
2016-05-16T06:28:27.692Z,60
2016-05-16T06:29:27.851Z,55
2016-05-16T06:30:27.870Z,55
2016-05-16T06:31:27.700Z,50
2016-05-16T06:32:27.860Z,50
2016-05-16T06:33:27.564Z,55
2016-05-16T06:34:27.709Z,55
2016-05-16T06:35:28.243Z,55
2016-05-16T06:36:27.886Z,55
2016-05-16T06:37:27.576Z,60
2016-05-16T06:38:27.891Z,60
2016-05-16T06:39:27.894Z,65
2016-05-16T06:40:27.912Z,65
2016-05-16T06:41:27.915Z,60
2016-05-16T06:42:27.917Z,60
2016-05-16T06:43:27.920Z,60
2016-05-16T06:44:27.782Z,55
2016-05-16T06:45:27.941Z,55
2016-05-16T06:46:27.928Z,65
2016-05-16T06:47:27.947Z,65
2016-05-16T06:48:27.950Z,70
2016-05-16T06:49:27.811Z,100
2016-05-16T06:50:28.408Z,65
2016-05-16T06:51:27.974Z,80
2016-05-16T06:52:27.976Z,60
2016-05-16T06:53:27.979Z,60
2016-05-16T06:54:27.996Z,65
2016-05-16T06:55:27.999Z,65
2016-05-16T06:56:28.002Z,65
2016-05-16T06:57:28.005Z,70
2016-05-16T06:58:28.007Z,70
2016-05-16T06:59:28.682Z,70
2016-05-16T07:00:28.044Z,75
2016-05-16T07:01:28.031Z,80
2016-05-16T07:02:29.831Z,95
2016-05-16T07:03:28.036Z,140
2016-05-16T07:04:28.040Z,450
2016-05-16T07:05:27.745Z,140
2016-05-16T07:06:27.903Z,125
2016-05-16T07:07:28.064Z,90
2016-05-16T07:08:28.081Z,85
2016-05-16T07:09:28.084Z,85
2016-05-16T07:10:28.086Z,85
2016-05-16T07:11:28.089Z,80
2016-05-16T07:12:27.936Z,85
2016-05-16T07:13:28.111Z,95
2016-05-16T07:14:28.097Z,90
2016-05-16T07:15:27.960Z,95
2016-05-16T07:16:28.119Z,110
2016-05-16T07:17:28.121Z,155
2016-05-16T07:18:27.983Z,105
2016-05-16T07:19:28.126Z,105
2016-05-16T07:20:27.894Z,150
2016-05-16T07:21:28.147Z,185
2016-05-16T07:22:27.994Z,160
2016-05-16T07:23:28.013Z,630
2016-05-16T07:24:28.030Z,275
2016-05-16T07:25:28.174Z,240
2016-05-16T07:26:28.176Z,340
2016-05-16T07:27:28.195Z,1365
2016-05-16T07:28:28.213Z,1475
2016-05-16T07:29:27.887Z,1165
2016-05-16T07:30:28.204Z,845
2016-05-16T07:31:28.065Z,290
2016-05-16T07:32:28.223Z,165
2016-05-16T07:33:28.242Z,160
2016-05-16T07:34:28.245Z,210
2016-05-16T07:35:28.357Z,240
2016-05-16T07:36:28.094Z,235
2016-05-16T07:37:28.097Z,220
2016-05-16T07:38:28.272Z,210
2016-05-16T07:39:28.306Z,185
2016-05-16T07:40:28.278Z,170
2016-05-16T07:41:28.154Z,170
2016-05-16T07:42:28.298Z,150
2016-05-16T07:43:27.831Z,155
2016-05-16T07:44:28.319Z,155
2016-05-16T07:45:28.305Z,165
2016-05-16T07:46:28.168Z,145
2016-05-16T07:47:28.201Z,120
2016-05-16T07:48:28.173Z,100
2016-05-16T07:49:28.192Z,90
2016-05-16T07:50:28.366Z,75
2016-05-16T07:51:28.369Z,60
2016-05-16T07:52:28.199Z,45
2016-05-16T07:53:28.265Z,45
2016-05-16T07:54:28.065Z,45
2016-05-16T07:55:28.395Z,45
2016-05-16T07:56:28.257Z,45
2016-05-16T07:57:28.400Z,60
2016-05-16T07:58:28.404Z,75
2016-05-16T07:59:28.422Z,85
2016-05-16T08:00:28.268Z,100
2016-05-16T08:01:28.427Z,115
2016-05-16T08:02:28.289Z,125
2016-05-16T08:03:28.448Z,140
2016-05-16T08:04:28.450Z,145
2016-05-16T08:05:28.719Z,155
2016-05-16T08:06:28.300Z,160
2016-05-16T08:07:28.459Z,170
2016-05-16T08:08:28.461Z,150
2016-05-16T08:09:28.511Z,135
2016-05-16T08:10:28.326Z,120
2016-05-16T08:11:28.516Z,100
2016-05-16T08:12:28.175Z,90
2016-05-16T08:13:28.349Z,80
2016-05-16T08:14:28.525Z,75
2016-05-16T08:15:28.356Z,80
2016-05-16T08:16:28.374Z,65
2016-05-16T08:17:28.377Z,55
2016-05-16T08:18:28.535Z,45
2016-05-16T08:19:38.741Z,45
2016-05-16T08:20:28.619Z,45
2016-05-16T08:21:28.512Z,50
2016-05-16T08:22:28.577Z,50
2016-05-16T08:23:28.580Z,55
2016-05-16T08:24:28.411Z,60
2016-05-16T08:25:28.616Z,65
2016-05-16T08:26:28.291Z,75
2016-05-16T08:27:28.434Z,90
2016-05-16T08:28:28.468Z,110
2016-05-16T08:29:28.595Z,125
2016-05-16T08:30:28.457Z,140
2016-05-16T08:31:28.618Z,145
2016-05-16T08:32:28.479Z,145
2016-05-16T08:33:28.654Z,150
2016-05-16T08:34:28.656Z,145
2016-05-16T08:35:28.909Z,130
2016-05-16T08:36:28.662Z,110
2016-05-16T08:37:28.508Z,95
2016-05-16T08:38:28.667Z,85
2016-05-16T08:39:28.686Z,75
2016-05-16T08:40:28.672Z,75
2016-05-16T08:41:28.722Z,75
2016-05-16T08:42:28.569Z,75
2016-05-16T08:43:28.742Z,75
2016-05-16T08:44:28.559Z,90
2016-05-16T08:45:28.732Z,95
2016-05-16T08:46:28.735Z,85
2016-05-16T08:47:28.583Z,85
2016-05-16T08:48:28.600Z,85
2016-05-16T08:49:28.603Z,80
2016-05-16T08:50:29.230Z,70
2016-05-16T08:51:28.936Z,60
2016-05-16T08:52:28.611Z,60
2016-05-16T08:53:28.769Z,55
2016-05-16T08:54:28.772Z,50
2016-05-16T08:55:28.791Z,45
2016-05-16T08:56:28.794Z,45
2016-05-16T08:57:28.515Z,45
2016-05-16T08:58:28.830Z,45
2016-05-16T08:59:28.817Z,40
2016-05-16T09:00:28.820Z,35
2016-05-16T09:01:28.681Z,35
2016-05-16T09:02:28.668Z,30
2016-05-16T09:03:28.844Z,30
2016-05-16T09:04:28.706Z,30
2016-05-16T09:05:29.959Z,30
2016-05-16T09:06:28.867Z,30
2016-05-16T09:07:28.870Z,35
2016-05-16T09:08:28.732Z,35
2016-05-16T09:09:28.891Z,40
2016-05-16T09:10:28.565Z,40
2016-05-16T09:11:28.740Z,45
2016-05-16T09:12:28.915Z,55
2016-05-16T09:13:28.917Z,60
2016-05-16T09:14:28.764Z,70
2016-05-16T09:15:28.610Z,80
2016-05-16T09:16:28.941Z,120
2016-05-16T09:17:28.927Z,130
2016-05-16T09:18:28.946Z,135
2016-05-16T09:19:28.950Z,135
2016-05-16T09:20:29.092Z,135
2016-05-16T09:21:29.330Z,135
2016-05-16T09:22:28.816Z,135
2016-05-16T09:23:28.975Z,135
2016-05-16T09:24:28.838Z,130
2016-05-16T09:25:28.825Z,135
2016-05-16T09:26:28.999Z,140
2016-05-16T09:27:29.002Z,140
2016-05-16T09:28:29.005Z,150
2016-05-16T09:29:29.023Z,150
2016-05-16T09:30:29.026Z,155
2016-05-16T09:31:28.887Z,140
2016-05-16T09:32:29.031Z,110
2016-05-16T09:33:29.065Z,110
2016-05-16T09:34:28.912Z,90
2016-05-16T09:35:29.071Z,80
2016-05-16T09:36:29.057Z,70
2016-05-16T09:37:29.076Z,60
2016-05-16T09:38:29.094Z,50
2016-05-16T09:39:28.956Z,45
2016-05-16T09:40:29.100Z,35
2016-05-16T09:41:28.977Z,35
2016-05-16T09:42:29.105Z,30
2016-05-16T09:43:29.123Z,30
2016-05-16T09:44:29.111Z,30
2016-05-16T09:45:28.972Z,30
2016-05-16T09:46:29.162Z,30
2016-05-16T09:47:29.149Z,35
2016-05-16T09:48:28.824Z,35
2016-05-16T09:49:29.030Z,35
2016-05-16T09:50:29.376Z,70
2016-05-16T09:51:29.020Z,75
2016-05-16T09:52:29.178Z,60
2016-05-16T09:53:29.025Z,90
2016-05-16T09:54:29.199Z,100
2016-05-16T09:55:29.218Z,110
2016-05-16T09:56:29.064Z,115
2016-05-16T09:57:29.208Z,120
2016-05-16T09:58:29.227Z,125
2016-05-16T09:59:29.244Z,120
2016-05-16T10:00:29.232Z,120
2016-05-16T10:01:29.093Z,125
2016-05-16T10:02:29.096Z,130
2016-05-16T10:03:29.254Z,135
2016-05-16T10:04:29.273Z,110
2016-05-16T10:05:29.151Z,105
2016-05-16T10:06:29.388Z,105
2016-05-16T10:07:29.126Z,130
2016-05-16T10:08:29.143Z,125
2016-05-16T10:09:29.303Z,125
2016-05-16T10:10:29.320Z,115
2016-05-16T10:11:29.308Z,125
2016-05-16T10:12:29.311Z,95
2016-05-16T10:13:28.923Z,105
2016-05-16T10:14:29.473Z,90
2016-05-16T10:15:29.694Z,85
2016-05-16T10:16:29.353Z,70
2016-05-16T10:17:42.417Z,65
2016-05-16T10:18:31.592Z,70
2016-05-16T10:19:29.375Z,65
2016-05-16T10:20:29.239Z,95
2016-05-16T10:21:29.381Z,65
2016-05-16T10:22:29.384Z,90
2016-05-16T10:23:29.419Z,70
2016-05-16T10:24:29.389Z,75
2016-05-16T10:25:29.252Z,95
2016-05-16T10:26:29.254Z,80
2016-05-16T10:27:29.429Z,90
2016-05-16T10:28:29.479Z,75
2016-05-16T10:29:29.497Z,95
2016-05-16T10:30:29.453Z,95
2016-05-16T10:31:29.315Z,95
2016-05-16T10:32:29.458Z,95
2016-05-16T10:33:29.460Z,75
2016-05-16T10:34:29.588Z,100
2016-05-16T10:35:29.481Z,100
2016-05-16T10:36:29.344Z,80
2016-05-16T10:37:29.487Z,85
2016-05-16T10:38:29.505Z,105
2016-05-16T10:39:29.368Z,110
2016-05-16T10:40:29.387Z,90
2016-05-16T10:41:29.357Z,90
2016-05-16T10:42:29.548Z,90
2016-05-16T10:43:43.628Z,95
2016-05-16T10:44:29.397Z,90
2016-05-16T10:45:29.399Z,90
2016-05-16T10:46:29.402Z,90
2016-05-16T10:47:29.576Z,95
2016-05-16T10:48:29.595Z,90
2016-05-16T10:49:29.425Z,90
2016-05-16T10:50:30.069Z,85
2016-05-16T10:51:29.586Z,85
2016-05-16T10:52:29.606Z,85
2016-05-16T10:53:29.452Z,85
2016-05-16T10:54:29.314Z,115
2016-05-16T10:55:29.317Z,85
2016-05-16T10:56:29.632Z,80
2016-05-16T10:57:29.518Z,80
2016-05-16T10:58:29.725Z,80
2016-05-16T10:59:29.789Z,80
2016-05-16T11:00:29.699Z,80
2016-05-16T11:01:29.888Z,85
2016-05-16T11:02:29.928Z,85
2016-05-16T11:03:29.807Z,85
2016-05-16T11:04:29.967Z,85
2016-05-16T11:05:32.034Z,85
2016-05-16T11:06:32.038Z,85
2016-05-16T11:07:30.016Z,85
2016-05-16T11:08:30.041Z,85
2016-05-16T11:09:29.736Z,80
2016-05-16T11:10:30.073Z,105
2016-05-16T11:11:30.082Z,105
2016-05-16T11:12:30.103Z,110
2016-05-16T11:13:30.107Z,110
2016-05-16T11:14:30.128Z,85
2016-05-16T11:15:29.961Z,95
2016-05-16T11:16:29.998Z,105
2016-05-16T11:17:30.157Z,90
2016-05-16T11:18:29.676Z,80
2016-05-16T11:19:30.149Z,85
2016-05-16T11:20:30.167Z,85
2016-05-16T11:21:30.171Z,80
2016-05-16T11:22:30.175Z,80
2016-05-16T11:23:30.193Z,80
2016-05-16T11:24:30.212Z,80
2016-05-16T11:25:30.042Z,85
2016-05-16T11:26:30.045Z,105
2016-05-16T11:27:30.220Z,105
2016-05-16T11:28:29.911Z,90
2016-05-16T11:29:30.069Z,90
2016-05-16T11:30:30.073Z,90
2016-05-16T11:31:30.091Z,90
2016-05-16T11:32:30.234Z,85
2016-05-16T11:33:30.269Z,85
2016-05-16T11:34:30.271Z,90
2016-05-16T11:35:30.180Z,90
2016-05-16T11:36:30.182Z,90
2016-05-16T11:37:30.279Z,90
2016-05-16T11:38:30.297Z,90
2016-05-16T11:39:30.300Z,90
2016-05-16T11:40:30.302Z,90
2016-05-16T11:41:30.321Z,90
2016-05-16T11:42:30.323Z,85
2016-05-16T11:43:30.326Z,85
2016-05-16T11:44:30.344Z,85
2016-05-16T11:45:30.362Z,85
2016-05-16T11:46:30.350Z,85
2016-05-16T11:47:30.368Z,85
2016-05-16T11:48:30.371Z,85
2016-05-16T11:49:30.390Z,80
2016-05-16T11:50:30.392Z,75
2016-05-16T11:51:30.660Z,70
2016-05-16T11:52:30.225Z,70
2016-05-16T11:53:30.243Z,65
2016-05-16T11:54:30.231Z,65
2016-05-16T11:55:30.093Z,70
2016-05-16T11:56:30.267Z,75
2016-05-16T11:57:30.426Z,80
2016-05-16T11:58:30.428Z,85
2016-05-16T11:59:30.276Z,80
2016-05-16T12:00:30.309Z,80
2016-05-16T12:01:30.453Z,80
2016-05-16T12:02:30.440Z,80
2016-05-16T12:03:30.474Z,80
2016-05-16T12:04:30.477Z,75
2016-05-16T12:05:30.729Z,75
2016-05-16T12:06:30.528Z,75
2016-05-16T12:07:30.500Z,75
2016-05-16T12:08:30.503Z,75
2016-05-16T12:09:30.505Z,75
2016-05-16T12:10:30.524Z,75
2016-05-16T12:11:30.371Z,75
2016-05-16T12:12:30.529Z,100
2016-05-16T12:13:30.532Z,100
2016-05-16T12:14:30.394Z,95
2016-05-16T12:15:30.225Z,95
2016-05-16T12:16:30.571Z,90
2016-05-16T12:17:30.574Z,100
2016-05-16T12:18:30.560Z,90
2016-05-16T12:19:30.267Z,95
2016-05-16T12:20:30.456Z,80
2016-05-16T12:21:30.631Z,75
2016-05-16T12:22:30.432Z,75
2016-05-16T12:23:30.621Z,70
2016-05-16T12:24:30.609Z,70
2016-05-16T12:25:30.611Z,70
2016-05-16T12:26:30.317Z,80
2016-05-16T12:27:30.523Z,75
2016-05-16T12:28:30.681Z,80
2016-05-16T12:29:30.340Z,75
2016-05-16T12:30:30.640Z,75
2016-05-16T12:31:30.518Z,75
2016-05-16T12:32:30.348Z,75
2016-05-16T12:33:30.508Z,70
2016-05-16T12:34:30.682Z,70
2016-05-16T12:35:30.622Z,60
2016-05-16T12:36:30.968Z,60
2016-05-16T12:37:30.378Z,55
2016-05-16T12:38:30.553Z,55
2016-05-16T12:39:30.727Z,55
2016-05-16T12:40:30.714Z,55
2016-05-16T12:41:30.716Z,60
2016-05-16T12:42:30.750Z,65
2016-05-16T12:43:30.752Z,70
2016-05-16T12:44:30.755Z,75
2016-05-16T12:45:30.758Z,90
2016-05-16T12:46:30.621Z,90
2016-05-16T12:47:30.779Z,90
2016-05-16T12:48:30.766Z,90
2016-05-16T12:49:30.769Z,95
2016-05-16T12:50:30.818Z,85
2016-05-16T12:51:30.963Z,85
2016-05-16T12:52:30.808Z,85
2016-05-16T12:53:30.843Z,80
2016-05-16T12:54:30.815Z,80
2016-05-16T12:55:30.832Z,85
2016-05-16T12:56:30.834Z,85
2016-05-16T12:57:30.681Z,90
2016-05-16T12:58:30.856Z,85
2016-05-16T12:59:30.546Z,85
2016-05-16T13:00:30.862Z,85
2016-05-16T13:01:30.880Z,85
2016-05-16T13:02:30.711Z,80
2016-05-16T13:03:30.869Z,75
2016-05-16T13:04:30.888Z,70
2016-05-16T13:05:31.203Z,65
2016-05-16T13:06:31.034Z,60
2016-05-16T13:07:30.911Z,60
2016-05-16T13:08:30.914Z,60
2016-05-16T13:09:30.777Z,55
2016-05-16T13:10:30.779Z,50
2016-05-16T13:11:30.782Z,50
2016-05-16T13:12:30.955Z,45
2016-05-16T13:13:30.943Z,45
2016-05-16T13:14:30.961Z,40
2016-05-16T13:15:30.964Z,40
2016-05-16T13:16:30.999Z,40
2016-05-16T13:17:30.985Z,40
2016-05-16T13:18:30.972Z,40
2016-05-16T13:19:30.849Z,35
2016-05-16T13:20:31.024Z,35
2016-05-16T13:21:31.027Z,40
2016-05-16T13:22:31.015Z,40
2016-05-16T13:23:31.048Z,45
2016-05-16T13:24:30.879Z,45
2016-05-16T13:25:31.038Z,50
2016-05-16T13:26:30.884Z,50
2016-05-16T13:27:30.887Z,55
2016-05-16T13:28:30.905Z,60
2016-05-16T13:29:31.065Z,60
2016-05-16T13:30:31.098Z,65
2016-05-16T13:31:31.070Z,70
2016-05-16T13:32:30.775Z,75
2016-05-16T13:33:30.934Z,80
2016-05-16T13:34:30.937Z,80
2016-05-16T13:35:31.267Z,85
2016-05-16T13:36:30.833Z,85
2016-05-16T13:37:30.961Z,90
2016-05-16T13:38:30.995Z,85
2016-05-16T13:39:31.138Z,85
2016-05-16T13:40:31.141Z,85
2016-05-16T13:41:30.988Z,85
2016-05-16T13:42:31.162Z,85
2016-05-16T13:43:31.149Z,80
2016-05-16T13:44:31.167Z,85
2016-05-16T13:45:31.170Z,85
2016-05-16T13:46:31.032Z,90
2016-05-16T13:47:31.034Z,90
2016-05-16T13:48:31.193Z,90
2016-05-16T13:49:31.041Z,85
2016-05-16T13:50:31.574Z,85
2016-05-16T13:51:31.060Z,85
2016-05-16T13:52:31.220Z,85
2016-05-16T13:53:30.926Z,85
2016-05-16T13:54:31.085Z,90
2016-05-16T13:55:31.087Z,90
2016-05-16T13:56:31.262Z,95
2016-05-16T13:57:31.109Z,95
2016-05-16T13:58:30.940Z,95
2016-05-16T13:59:31.301Z,95
2016-05-16T14:00:31.132Z,85
2016-05-16T14:01:31.119Z,85
2016-05-16T14:02:31.294Z,80
2016-05-16T14:03:31.311Z,85
2016-05-16T14:04:31.143Z,85
2016-05-16T14:05:31.162Z,85
2016-05-16T14:06:31.617Z,85
2016-05-16T14:07:31.323Z,85
2016-05-16T14:08:31.341Z,80
2016-05-16T14:09:31.344Z,80
2016-05-16T14:10:31.346Z,80
2016-05-16T14:11:31.036Z,80
2016-05-16T14:12:31.367Z,80
2016-05-16T14:13:31.214Z,80
2016-05-16T14:14:31.216Z,80
2016-05-16T14:15:31.235Z,80
2016-05-16T14:16:31.253Z,75
2016-05-16T14:17:31.413Z,75
2016-05-16T14:18:31.399Z,70
2016-05-16T14:19:31.449Z,70
2016-05-16T14:20:31.796Z,70